This is the latest recevied weather packets stored in our database for station/object SM6LNJ-13. If no packets are shown the sender has not sent any weather packets the latest 10 day(s).
| Time | Temp. | Humidity | Pressure | Rain* | Wind** | Luminosity | Snow |
|---|---|---|---|---|---|---|---|
| 1777866466 | 8.89° C | 93% | 1416 hPa | 0 mm | - | - | - |
| 1777858666 | 8.89° C | 94% | 1416.8 hPa | 0 mm | - | - | - |
| 1777858546 | 8.89° C | 94% | 1416.8 hPa | 0 mm | - | - | - |
| 1777858066 | 8.89° C | 94% | 1416.7 hPa | 0 mm | - | - | - |
| 1777857826 | 8.89° C | 94% | 1416.8 hPa | 0 mm | - | - | - |
| 1777857706 | 8.89° C | 94% | 1416.8 hPa | 0 mm | - | - | - |
| 1777857346 | 8.89° C | 94% | 1416.9 hPa | 0 mm | - | - | - |
| 1777857226 | 8.89° C | 94% | 1416.9 hPa | 0 mm | - | - | - |
| 1777857159 | 8.89° C | 94% | 1417 hPa | 0 mm | - | - | - |
| 1777857159 | 8.89° C | 94% | 1416.9 hPa | 0 mm | - | - | - |
| 1777857106 | 8.89° C | 94% | 1416.9 hPa | 0 mm | - | - | - |
| 1777856986 | 8.89° C | 94% | 1417 hPa | 0 mm | - | - | - |
| 1777851712 | 8.89° C | 93% | 1416 hPa | 0 mm | - | - | - |
| 1777850992 | 8.33° C | 93% | 1415.7 hPa | 0 mm | - | - | - |
| 1777850873 | 8.33° C | 93% | 1415.6 hPa | 0 mm | - | - | - |
| 1777838506 | 9.44° C | 89% | 1417.3 hPa | 0 mm | - | - | - |
| 1777821346 | 11.67° C | 85% | 1423.3 hPa | 0 mm | - | - | - |
| 1777788826 | 10.56° C | 93% | 1419.9 hPa | 0 mm | - | - | - |
| 1777771666 | 10.56° C | 90% | 1420.3 hPa | 0 mm | - | - | - |
| 1777757386 | 11.11° C | 84% | 1421.8 hPa | 0 mm | - | - | - |
| 1777752706 | 11.11° C | 80% | 1422.3 hPa | 0 mm | - | - | - |
| 1777748966 | 12.22° C | 73% | - | - | - | - | - |
| 1777744666 | 14.44° C | 56% | 1429.6 hPa | 0 mm | - | - | - |
| 1777744186 | 15° C | 55% | 1430.5 hPa | 0 mm | - | - | - |
| 1777744066 | 15° C | 54% | 1430.6 hPa | 0 mm | - | - | - |
* Rain latest hour (hover to see other rain measurements)
** Current wind speed in m/s (hover to see current wind gust speed)